Time;durP1;ratioP1;P1;durP2;ratioP2;P2;SDS_P1;SDS_P2;PMS_P1;PMS_P2;Temp;Humidity;BMP_temperature;BMP_pressure;BME280_temperature;BME280_humidity;BME280_pressure;Samples;Min_cycle;Max_cycle;Signal;HPM_P1;HPM_P2
2021/10/16 00:02:01;;;;;;;5.93;5.07;;;13.00;70.50;;;12.61;55.69;95091.94;5051435;28;20207;-80
2021/10/16 00:04:29;;;;;;;6.68;4.75;;;13.00;70.50;;;12.61;56.01;95091.16;5051085;28;20256;-80
2021/10/16 00:06:56;;;;;;;5.75;4.82;;;13.00;70.50;;;12.62;55.91;95093.56;5051816;28;20215;-80
2021/10/16 00:09:23;;;;;;;5.28;4.32;;;13.00;70.50;;;12.63;55.95;95097.81;5034863;28;20278;-79
2021/10/16 00:11:50;;;;;;;6.57;4.45;;;13.00;70.60;;;12.63;55.72;95097.00;5034411;28;20626;-79
2021/10/16 00:14:18;;;;;;;4.93;4.40;;;13.00;70.50;;;12.62;55.90;95090.09;5030694;28;20200;-80
2021/10/16 00:16:45;;;;;;;5.30;4.47;;;13.00;70.60;;;12.60;56.16;95100.03;5016257;28;20702;-80
2021/10/16 00:19:12;;;;;;;5.75;4.43;;;13.00;70.50;;;12.61;55.80;95107.72;5014608;28;20267;-81
2021/10/16 00:21:40;;;;;;;5.57;4.57;;;13.00;70.60;;;12.65;55.85;95113.41;5064124;28;20212;-80
2021/10/16 00:24:07;;;;;;;6.25;5.00;;;13.00;70.60;;;12.64;55.99;95119.69;5034165;28;20286;-79
2021/10/16 00:26:34;;;;;;;6.03;4.72;;;13.10;70.70;;;12.64;55.98;95130.19;5017836;28;20215;-80
2021/10/16 00:29:02;;;;;;;5.38;4.68;;;13.00;70.60;;;12.63;55.98;95126.78;5034772;28;20283;-80
2021/10/16 00:31:29;;;;;;;5.28;4.78;;;13.00;70.60;;;12.63;56.06;95133.84;5034722;28;20761;-80
2021/10/16 00:33:57;;;;;;;6.25;4.88;;;13.00;70.60;;;12.64;56.03;95130.19;5050232;28;20191;-80
2021/10/16 00:36:24;;;;;;;6.18;4.97;;;13.00;70.70;;;12.64;56.03;95131.00;5034323;28;20203;-80
2021/10/16 00:38:51;;;;;;;6.75;5.13;;;13.00;70.70;;;12.63;56.22;95125.94;5034481;28;20245;-81
2021/10/16 00:41:19;;;;;;;21.13;12.23;;;13.00;70.70;;;12.61;56.01;95128.78;5030760;28;20216;-79
2021/10/16 00:43:46;;;;;;;10.80;7.50;;;13.00;70.70;;;12.63;56.06;95131.22;5014683;28;20195;-79
2021/10/16 00:46:13;;;;;;;7.22;5.80;;;13.10;70.80;;;12.63;56.21;95126.78;5047155;28;20227;-80
2021/10/16 00:48:40;;;;;;;12.27;8.20;;;13.10;71.70;;;12.64;56.08;95128.38;5063674;28;20283;-80
2021/10/16 00:51:08;;;;;;;14.18;6.50;;;13.00;70.70;;;12.60;55.90;95127.16;5047568;28;20235;-80
2021/10/16 00:53:35;;;;;;;6.22;4.90;;;13.00;70.80;;;12.63;56.01;95136.47;5036074;28;20278;-80
2021/10/16 00:56:03;;;;;;;5.32;4.22;;;13.00;70.90;;;12.56;56.12;95131.19;5050866;28;20219;-79
2021/10/16 00:58:32;;;;;;;4.90;3.88;;;13.00;71.00;;;12.55;56.28;95126.94;5034118;28;20582;-80
2021/10/16 01:01:00;;;;;;;5.18;3.97;;;13.00;71.10;;;12.56;56.23;95139.09;5034155;28;20265;-80
2021/10/16 01:03:28;;;;;;;4.63;3.75;;;13.00;71.30;;;12.54;56.00;95138.47;5033345;28;20667;-79
2021/10/16 01:05:56;;;;;;;3.92;3.53;;;13.00;70.90;;;12.53;56.29;95144.75;5033850;28;20219;-80
2021/10/16 01:08:24;;;;;;;4.18;3.60;;;12.90;70.90;;;12.48;56.29;95134.00;5014182;28;20196;-80
2021/10/16 01:10:52;;;;;;;3.72;3.38;;;13.00;70.90;;;12.46;56.45;95133.38;5030735;28;20207;-80
2021/10/16 01:13:19;;;;;;;4.05;3.20;;;13.00;71.00;;;12.41;56.56;95136.59;5033812;28;20325;-79
2021/10/16 01:15:51;;;;;;;3.53;3.22;;;12.90;70.90;;;12.39;56.32;95128.13;5034460;28;20238;-80
2021/10/16 01:18:21;;;;;;;3.92;2.78;;;12.90;70.90;;;12.36;56.38;95133.75;5050575;28;20686;-80
2021/10/16 01:21:06;;;;;;;2.83;2.58;;;12.80;70.80;;;12.32;56.14;95128.09;5050464;28;20617;-80
2021/10/16 01:23:35;;;;;;;3.60;2.53;;;12.80;70.90;;;12.30;55.91;95134.56;5022048;28;20602;-80
2021/10/16 01:26:04;;;;;;;2.80;2.42;;;12.80;70.60;;;12.25;56.17;95131.72;5050273;28;20216;-80
2021/10/16 01:28:32;;;;;;;2.65;2.45;;;12.80;70.50;;;12.25;56.37;95135.13;5034446;28;20563;-80
2021/10/16 01:30:59;;;;;;;2.70;2.47;;;12.70;70.50;;;12.20;55.74;95129.66;5070686;28;20211;-80
2021/10/16 01:33:29;;;;;;;2.72;2.53;;;12.70;70.50;;;12.17;56.25;95133.50;5037316;28;20195;-80
2021/10/16 01:36:01;;;;;;;3.05;2.50;;;12.70;70.50;;;12.13;56.08;95136.72;5053383;28;20225;-80
2021/10/16 01:38:31;;;;;;;2.47;2.28;;;12.60;70.70;;;12.13;56.11;95137.53;5034018;28;20246;-81
2021/10/16 01:41:00;;;;;;;3.00;2.30;;;12.60;70.50;;;12.11;56.19;95142.16;5050268;28;20220;-80
2021/10/16 01:43:30;;;;;;;2.60;2.40;;;12.50;70.50;;;12.10;56.23;95140.53;5041421;28;20203;-79
2021/10/16 01:45:58;;;;;;;2.60;2.40;;;12.60;70.60;;;12.07;56.20;95138.31;5066510;28;20216;-79
2021/10/16 01:48:27;;;;;;;2.47;2.28;;;12.50;70.60;;;12.02;56.04;95140.69;5064708;28;20282;-79
2021/10/16 01:50:56;;;;;;;2.55;2.33;;;12.50;70.60;;;12.03;56.04;95150.22;5033762;28;20238;-80
2021/10/16 01:53:29;;;;;;;2.50;2.30;;;12.50;70.60;;;12.03;56.16;95157.31;5069613;28;20534;-79
2021/10/16 01:56:03;;;;;;;3.40;2.80;;;12.50;70.60;;;11.94;56.34;95148.75;5026220;28;20210;-79
2021/10/16 01:58:36;;;;;;;2.50;2.30;;;12.40;70.40;;;11.90;56.59;95148.31;5037202;28;20285;-79
2021/10/16 02:01:17;;;;;;;2.67;2.47;;;12.50;70.60;;;11.87;56.46;95156.56;5038502;28;20230;-80
2021/10/16 02:03:48;;;;;;;2.45;2.20;;;12.40;70.50;;;11.81;56.07;95149.47;5019650;28;20249;-79
2021/10/16 02:06:23;;;;;;;2.88;2.60;;;12.40;70.60;;;11.84;56.54;95167.50;5035189;28;20229;-80
2021/10/16 02:08:56;;;;;;;4.10;2.47;;;12.30;70.50;;;11.80;56.09;95169.69;5051336;28;20219;-80
2021/10/16 02:11:23;;;;;;;2.45;2.25;;;12.40;70.60;;;11.75;56.40;95164.19;5051231;28;20212;-80
2021/10/16 02:13:55;;;;;;;2.65;2.30;;;12.20;70.50;;;11.74;56.31;95165.19;5019333;28;20572;-80
2021/10/16 02:16:23;;;;;;;2.40;2.20;;;12.30;70.60;;;11.68;56.30;95163.31;5033040;28;20306;-80
2021/10/16 02:19:00;;;;;;;3.70;2.30;;;12.20;70.60;;;11.64;56.69;95156.84;5053688;28;20262;-80
2021/10/16 02:21:28;;;;;;;2.88;2.67;;;12.20;70.60;;;11.64;56.41;95175.22;5051122;28;20219;-79
2021/10/16 02:23:58;;;;;;;2.40;2.20;;;12.10;70.50;;;11.56;56.27;95167.47;5018591;28;20223;-80
2021/10/16 02:26:33;;;;;;;2.90;2.63;;;12.10;70.60;;;11.57;56.62;95188.34;5048868;28;20744;-80
2021/10/16 02:29:01;;;;;;;2.90;2.60;;;12.10;70.60;;;11.54;56.50;95186.06;5033058;28;20207;-79
2021/10/16 02:31:34;;;;;;;2.88;2.58;;;12.20;70.60;;;11.50;56.56;95193.53;5049251;28;20220;-80
2021/10/16 02:34:05;;;;;;;3.92;3.03;;;12.00;70.50;;;11.45;56.65;95181.94;5030076;28;20235;-80
2021/10/16 02:36:47;;;;;;;4.15;3.30;;;11.90;70.40;;;11.39;56.82;95175.66;5079198;28;20310;-80
2021/10/16 02:39:14;;;;;;;3.08;2.63;;;11.90;70.50;;;11.34;56.60;95181.47;5064223;28;20592;-79
2021/10/16 02:41:41;;;;;;;3.00;2.72;;;11.90;70.50;;;11.33;56.30;95186.94;5049389;28;20697;-78
2021/10/16 02:44:08;;;;;;;3.08;2.78;;;11.90;70.60;;;11.31;56.60;95189.72;5035833;28;20565;-79
2021/10/16 02:46:41;;;;;;;3.75;3.05;;;11.90;70.60;;;11.27;56.79;95177.97;5049423;28;20672;-80
2021/10/16 02:49:09;;;;;;;3.40;3.10;;;11.80;70.50;;;11.24;56.87;95183.59;5049476;28;20192;-79
2021/10/16 02:51:36;;;;;;;3.38;3.08;;;11.80;70.60;;;11.19;56.65;95188.63;5026829;28;20266;-80
2021/10/16 02:54:03;;;;;;;3.40;2.58;;;11.80;70.60;;;11.11;56.82;95179.06;5052349;28;20192;-79
2021/10/16 02:56:31;;;;;;;2.90;2.60;;;11.70;70.60;;;11.09;56.67;95186.31;5036528;28;20277;-80
2021/10/16 02:59:08;;;;;;;3.30;2.92;;;11.70;70.60;;;11.04;56.58;95197.34;5037139;28;20234;-79
2021/10/16 03:01:44;;;;;;;2.88;2.53;;;11.70;70.70;;;11.00;56.83;95190.88;5021489;28;20219;-79
2021/10/16 03:04:12;;;;;;;3.13;2.83;;;11.60;70.60;;;10.97;56.92;95191.22;5035989;28;20690;-80
2021/10/16 03:06:41;;;;;;;3.20;2.72;;;11.60;70.60;;;10.94;56.75;95190.81;5036200;28;20231;-80
2021/10/16 03:09:09;;;;;;;4.68;2.90;;;11.50;70.70;;;10.89;56.79;95191.38;5035833;28;20196;-81
2021/10/16 03:11:39;;;;;;;3.20;2.90;;;11.50;70.70;;;10.83;56.88;95194.75;5035708;28;20251;-80
2021/10/16 03:14:06;;;;;;;3.60;3.17;;;11.50;71.60;;;10.77;56.51;95203.38;5035439;28;20207;-79
2021/10/16 03:16:35;;;;;;;2.97;2.67;;;11.40;70.60;;;10.67;56.99;95198.41;5032213;28;20209;-80
2021/10/16 03:19:08;;;;;;;2.97;2.67;;;11.40;70.70;;;10.59;57.11;95199.31;5043550;28;20318;-80
2021/10/16 03:21:36;;;;;;;3.10;2.80;;;11.30;70.60;;;10.51;57.44;95199.41;5052073;28;20737;-80
2021/10/16 03:24:11;;;;;;;3.00;2.70;;;11.20;70.50;;;10.46;57.33;95196.53;5036463;28;20242;-80
2021/10/16 03:26:39;;;;;;;4.00;3.10;;;11.20;70.70;;;10.40;57.26;95203.34;5035183;28;20302;-80
2021/10/16 03:29:06;;;;;;;2.95;2.67;;;11.10;70.70;;;10.38;57.31;95203.50;5035480;28;20195;-79
2021/10/16 03:31:33;;;;;;;3.50;3.20;;;11.00;70.80;;;10.34;57.38;95197.00;5035020;28;20219;-80
2021/10/16 03:34:01;;;;;;;3.42;2.90;;;11.00;70.90;;;10.31;57.68;95205.22;5050686;28;20567;-79
2021/10/16 03:36:28;;;;;;;2.95;2.60;;;11.00;71.00;;;10.25;57.36;95196.28;5051632;28;20216;-80
2021/10/16 03:38:56;;;;;;;4.18;2.90;;;10.90;71.00;;;10.29;57.34;95203.78;5034885;28;20710;-80
2021/10/16 03:41:23;;;;;;;3.83;3.22;;;10.90;71.00;;;10.25;57.30;95201.53;5068431;28;20230;-81
2021/10/16 03:43:50;;;;;;;4.18;3.72;;;10.90;71.10;;;10.20;57.48;95198.63;5034990;28;20184;-81
2021/10/16 03:46:18;;;;;;;4.07;3.67;;;10.80;71.00;;;10.20;57.47;95201.25;5035379;28;20219;-80
2021/10/16 03:48:46;;;;;;;3.85;3.40;;;10.80;71.10;;;10.19;57.55;95202.25;5035102;28;20192;-80
2021/10/16 03:51:13;;;;;;;4.00;3.38;;;10.80;71.10;;;10.16;57.68;95207.06;5018658;28;20226;-80
2021/10/16 03:53:40;;;;;;;4.30;3.90;;;10.80;71.10;;;10.08;57.94;95218.41;5033228;28;20246;-81
2021/10/16 03:56:07;;;;;;;4.03;3.58;;;10.70;71.10;;;10.00;58.08;95219.34;5051759;28;20226;-80
2021/10/16 03:58:36;;;;;;;3.67;3.33;;;10.70;71.00;;;9.91;57.77;95216.00;5051653;28;20224;-80
2021/10/16 04:01:03;;;;;;;3.35;3.05;;;10.70;71.00;;;9.85;57.76;95214.09;5050870;28;20204;-79
2021/10/16 04:03:31;;;;;;;3.88;3.47;;;10.60;70.90;;;9.76;57.69;95210.75;5035101;28;20688;-81
2021/10/16 04:05:59;;;;;;;3.47;3.17;;;10.50;70.90;;;9.67;57.52;95205.78;5017968;28;20222;-81
2021/10/16 04:08:26;;;;;;;4.20;3.53;;;10.40;70.80;;;9.56;57.65;95201.78;5050857;28;20196;-80
2021/10/16 04:10:54;;;;;;;4.47;3.60;;;10.50;70.90;;;9.50;57.80;95207.72;5034915;28;20231;-80
2021/10/16 04:13:22;;;;;;;3.80;3.40;;;10.30;70.80;;;9.40;57.68;95202.75;5050735;28;20220;-80
2021/10/16 04:15:53;;;;;;;3.60;3.25;;;10.30;70.80;;;9.33;57.98;95214.91;5031627;28;20207;-80
2021/10/16 04:18:21;;;;;;;3.92;3.42;;;10.20;70.80;;;9.25;58.01;95213.16;5015176;28;20234;-81
2021/10/16 04:20:48;;;;;;;3.65;3.28;;;10.10;70.70;;;9.14;57.77;95217.00;5014913;28;20230;-80
2021/10/16 04:23:16;;;;;;;3.88;3.05;;;10.00;70.70;;;9.06;57.82;95214.47;5031155;28;20679;-79
2021/10/16 04:25:46;;;;;;;4.57;3.47;;;9.90;72.10;;;9.01;57.76;95219.38;5048232;28;20726;-80
2021/10/16 04:28:13;;;;;;;4.28;3.40;;;9.80;72.10;;;8.95;57.76;95213.06;5064219;28;20616;-80
2021/10/16 04:31:04;;;;;;;4.10;3.53;;;9.80;72.20;;;8.89;57.96;95213.75;5043291;28;20232;-81
2021/10/16 04:33:32;;;;;;;3.90;3.50;;;9.70;72.20;;;8.83;57.96;95219.69;5063426;28;20234;-81
2021/10/16 04:36:01;;;;;;;3.60;3.20;;;9.60;72.20;;;8.76;57.86;95217.75;5035006;28;20219;-81
2021/10/16 04:38:28;;;;;;;3.35;3.05;;;9.60;72.30;;;8.68;58.01;95216.97;5034678;28;20215;-81
2021/10/16 04:40:56;;;;;;;3.60;3.25;;;9.60;72.40;;;8.67;58.21;95221.41;5050048;28;20235;-81
2021/10/16 04:43:24;;;;;;;4.25;3.47;;;9.50;73.30;;;8.61;58.05;95222.88;5033837;28;20215;-81
2021/10/16 04:45:51;;;;;;;5.43;3.50;;;9.50;72.50;;;8.56;58.07;95227.81;5034405;28;20196;-81
2021/10/16 04:48:18;;;;;;;5.88;3.80;;;9.40;72.50;;;8.46;58.19;95217.56;5050428;28;20199;-81
2021/10/16 04:50:47;;;;;;;6.53;4.65;;;9.30;72.50;;;8.45;58.42;95230.78;5033527;28;20219;-80
2021/10/16 04:53:14;;;;;;;5.30;4.10;;;9.30;72.60;;;8.32;58.69;95229.56;5051000;28;20207;-80
2021/10/16 04:55:43;;;;;;;5.57;4.40;;;9.20;72.50;;;8.27;58.41;95226.59;5034152;28;20257;-80
2021/10/16 04:58:12;;;;;;;5.32;4.18;;;9.10;73.40;;;8.26;58.36;95229.41;5034161;28;20251;-81
2021/10/16 05:00:42;;;;;;;5.95;4.85;;;9.10;72.60;;;8.22;58.48;95239.38;5035200;28;20204;-80
2021/10/16 05:03:14;;;;;;;5.30;4.60;;;9.00;72.70;;;8.16;58.72;95234.81;5046760;28;20209;-81
2021/10/16 05:05:42;;;;;;;6.10;4.47;;;9.00;72.80;;;8.12;58.68;95234.34;5051060;28;20200;-81
2021/10/16 05:08:13;;;;;;;7.93;4.45;;;8.90;72.90;;;8.07;58.71;95244.50;5050763;28;20212;-80
2021/10/16 05:10:40;;;;;;;6.10;4.20;;;8.90;72.90;;;8.01;58.81;95240.75;5067678;28;20226;-80
2021/10/16 05:13:11;;;;;;;4.75;4.10;;;8.80;73.00;;;7.97;59.00;95239.47;5050939;28;20286;-78
2021/10/16 05:15:39;;;;;;;4.63;4.15;;;8.80;73.10;;;7.96;59.17;95250.88;5034500;28;20637;-81
2021/10/16 05:18:11;;;;;;;5.10;4.60;;;8.80;73.10;;;7.89;59.20;95241.28;5024018;28;20311;-82
2021/10/16 05:20:46;;;;;;;5.85;4.43;;;8.70;73.20;;;7.89;59.12;95249.91;5039243;28;20279;-80
2021/10/16 05:23:14;;;;;;;4.25;3.85;;;8.70;73.20;;;7.86;58.92;95250.25;5037985;28;20216;-81
2021/10/16 05:25:43;;;;;;;6.72;4.60;;;8.70;73.30;;;7.82;59.21;95256.78;5037770;28;20571;-81
2021/10/16 05:28:13;;;;;;;5.88;4.63;;;8.60;73.30;;;7.80;59.35;95258.72;5037961;28;20196;-79
2021/10/16 05:30:40;;;;;;;5.07;4.25;;;8.60;73.40;;;7.78;59.40;95269.34;5037734;28;20275;-79
2021/10/16 05:33:09;;;;;;;7.97;5.20;;;8.60;73.60;;;7.76;59.45;95268.69;5066569;28;20235;-79
2021/10/16 05:35:38;;;;;;;6.20;5.10;;;8.50;73.50;;;7.74;59.27;95268.06;5067033;28;20234;-79
2021/10/16 05:38:06;;;;;;;6.82;5.10;;;8.50;73.60;;;7.72;59.04;95272.63;5053586;28;20339;-79
2021/10/16 05:40:34;;;;;;;6.40;4.80;;;8.50;73.70;;;7.68;58.84;95272.13;5037728;28;20306;-79
2021/10/16 05:43:02;;;;;;;5.55;4.75;;;8.50;73.80;;;7.69;59.32;95273.78;5054506;28;20250;-79
2021/10/16 05:45:29;;;;;;;5.57;4.72;;;8.40;73.60;;;7.67;59.28;95272.31;5020382;28;20235;-79
2021/10/16 05:47:59;;;;;;;6.57;5.00;;;8.40;73.60;;;7.64;59.37;95276.06;5018138;28;20200;-79
2021/10/16 05:50:26;;;;;;;5.65;4.97;;;8.40;73.80;;;7.59;59.26;95273.13;5017939;28;20292;-79
2021/10/16 05:52:54;;;;;;;5.93;5.03;;;8.40;73.80;;;7.64;59.41;95283.91;5035956;28;20282;-79
2021/10/16 05:55:22;;;;;;;5.88;4.43;;;8.30;73.70;;;7.65;59.40;95292.53;5037815;28;20199;-78
2021/10/16 05:57:49;;;;;;;5.00;4.07;;;8.30;73.90;;;7.61;59.56;95291.25;5036994;28;20251;-79
2021/10/16 06:00:17;;;;;;;5.32;4.70;;;8.30;73.90;;;7.67;59.02;95303.63;5053751;28;20230;-79
2021/10/16 06:02:51;;;;;;;6.47;5.43;;;8.30;74.00;;;7.61;59.39;95299.88;5037888;28;20315;-79
2021/10/16 06:05:28;;;;;;;7.07;5.65;;;8.30;74.00;;;7.70;59.30;95313.75;5017034;28;20659;-78
2021/10/16 06:07:57;;;;;;;7.28;6.13;;;8.30;74.20;;;7.73;59.34;95312.63;5033759;28;20217;-78
2021/10/16 06:10:25;;;;;;;9.93;7.72;;;8.30;75.10;;;7.75;59.62;95311.47;5037089;28;20204;-79
2021/10/16 06:12:53;;;;;;;7.65;6.78;;;8.30;74.30;;;7.80;59.36;95318.78;5069117;28;20227;-79
2021/10/16 06:15:21;;;;;;;10.20;8.70;;;8.40;74.50;;;7.80;59.28;95317.00;5035039;28;20666;-79
2021/10/16 06:17:48;;;;;;;10.90;8.85;;;8.40;74.50;;;7.83;59.14;95326.31;5048865;28;20215;-79
2021/10/16 06:20:17;;;;;;;8.73;6.60;;;8.40;74.50;;;7.83;59.39;95319.28;5019777;28;20312;-78
2021/10/16 06:22:45;;;;;;;7.55;6.50;;;8.40;74.70;;;7.90;59.71;95329.91;5022461;28;20215;-78
2021/10/16 06:25:12;;;;;;;7.55;6.15;;;8.50;74.80;;;7.98;59.54;95319.44;5058689;28;20188;-80
2021/10/16 06:27:40;;;;;;;7.65;5.55;;;8.50;74.80;;;8.11;59.75;95328.56;5025379;28;20238;-80
2021/10/16 06:30:08;;;;;;;7.15;5.07;;;8.50;74.80;;;8.24;59.78;95333.25;5020465;28;20196;-79
2021/10/16 06:32:35;;;;;;;7.88;4.28;;;8.60;75.60;;;8.37;59.75;95338.78;5020252;28;20261;-80
2021/10/16 06:35:05;;;;;;;6.90;4.38;;;8.70;74.90;;;8.49;59.68;95331.44;5036528;28;20215;-79
2021/10/16 06:37:33;;;;;;;4.60;3.65;;;8.80;75.00;;;8.64;59.90;95342.84;5032786;28;20225;-79
2021/10/16 06:40:03;;;;;;;8.60;5.88;;;8.90;75.00;;;8.79;59.58;95342.13;5035644;28;20231;-79
2021/10/16 06:42:37;;;;;;;6.20;4.45;;;9.00;75.10;;;8.92;59.63;95352.88;5052684;28;20215;-79
2021/10/16 06:45:19;;;;;;;5.97;4.13;;;9.10;75.20;;;9.03;59.60;95362.13;5038955;28;20204;-79
2021/10/16 06:48:05;;;;;;;5.43;3.83;;;9.20;75.30;;;9.13;59.59;95367.97;5052511;28;20211;-79
2021/10/16 06:50:52;;;;;;;5.25;3.97;;;9.30;75.30;;;9.23;59.38;95364.34;5039194;28;20218;-80
2021/10/16 06:53:19;;;;;;;6.55;4.40;;;9.40;75.30;;;9.30;59.51;95360.00;5052612;28;20306;-80
2021/10/16 06:55:48;;;;;;;8.60;4.10;;;9.50;75.10;;;9.38;59.36;95367.03;5031951;28;20569;-80
2021/10/16 06:58:15;;;;;;;6.50;4.50;;;9.60;75.00;;;9.43;59.33;95362.06;5048871;28;20207;-80
2021/10/16 07:00:43;;;;;;;5.30;4.80;;;9.70;75.10;;;9.52;59.29;95374.16;5016007;28;20640;-79
2021/10/16 07:03:29;;;;;;;5.00;3.78;;;9.70;74.80;;;9.58;59.23;95376.06;5036311;28;20261;-79
2021/10/16 07:05:58;;;;;;;5.32;3.55;;;9.80;74.70;;;9.66;59.35;95374.38;5051875;28;20235;-79
2021/10/16 07:08:29;;;;;;;3.20;2.90;;;9.90;74.70;;;9.72;59.07;95376.31;5035560;28;20254;-79
2021/10/16 07:10:59;;;;;;;5.38;3.70;;;10.00;73.40;;;9.82;59.12;95386.53;5048856;28;20217;-79
2021/10/16 07:13:27;;;;;;;6.78;4.32;;;10.10;73.40;;;9.87;58.73;95385.00;5071230;28;20290;-79
2021/10/16 07:15:54;;;;;;;6.25;3.70;;;10.10;73.30;;;9.95;58.75;95392.00;5051077;28;20296;-80
2021/10/16 07:18:24;;;;;;;4.78;3.33;;;10.20;73.30;;;10.02;58.83;95395.56;5035248;28;20220;-79
2021/10/16 07:20:51;;;;;;;4.93;3.50;;;10.20;73.30;;;10.05;58.78;95389.94;5029087;28;20258;-79
2021/10/16 07:23:38;;;;;;;4.78;3.05;;;10.30;73.40;;;10.21;58.68;95403.91;5048663;28;20570;-78
2021/10/16 07:26:06;;;;;;;5.50;3.20;;;10.40;73.20;;;10.32;58.75;95393.00;5051746;28;20250;-79
2021/10/16 07:28:35;;;;;;;5.22;3.63;;;10.50;73.30;;;10.41;58.54;95396.38;5052134;28;20299;-78
2021/10/16 07:31:03;;;;;;;4.55;3.78;;;10.50;73.10;;;10.46;58.40;95391.44;5051568;28;20273;-79
2021/10/16 07:33:31;;;;;;;6.07;3.10;;;10.60;72.80;;;10.45;57.92;95394.22;5051998;28;20200;-80
2021/10/16 07:35:58;;;;;;;8.65;2.95;;;10.70;72.50;;;10.33;57.59;95391.22;5051313;28;20662;-79
2021/10/16 07:38:27;;;;;;;3.85;2.90;;;10.70;72.10;;;10.23;57.65;95397.50;5031590;28;20311;-79
2021/10/16 07:40:54;;;;;;;4.45;2.95;;;10.70;71.90;;;10.11;58.05;95404.16;5048382;28;20248;-79
2021/10/16 07:43:21;;;;;;;4.45;3.03;;;10.60;71.80;;;10.03;57.89;95401.59;5032389;28;20204;-78
2021/10/16 07:45:49;;;;;;;3.72;2.53;;;10.60;71.80;;;9.96;58.10;95392.81;5031702;28;20219;-79
2021/10/16 07:48:16;;;;;;;4.28;2.33;;;10.50;71.80;;;9.98;58.17;95393.47;5016117;28;20254;-79
2021/10/16 07:50:43;;;;;;;4.78;2.40;;;10.50;71.90;;;9.99;58.07;95402.97;5017386;28;20665;-79
2021/10/16 07:53:10;;;;;;;3.50;2.70;;;10.40;71.90;;;9.99;58.05;95401.13;5032657;28;20196;-78
2021/10/16 07:55:37;;;;;;;4.38;2.75;;;10.40;71.90;;;10.02;57.99;95405.22;5014257;28;20198;-79
2021/10/16 07:58:04;;;;;;;3.05;2.45;;;10.40;72.10;;;10.06;57.94;95396.03;5034802;28;20686;-79
2021/10/16 08:00:32;;;;;;;4.07;2.72;;;10.40;72.20;;;10.11;57.77;95404.16;5031418;28;20224;-80
2021/10/16 08:02:59;;;;;;;5.57;2.72;;;10.40;72.20;;;10.17;57.93;95400.03;5051053;28;20215;-79
2021/10/16 08:05:27;;;;;;;3.60;2.50;;;10.40;72.30;;;10.22;57.99;95408.97;5034918;28;20222;-79
2021/10/16 08:07:54;;;;;;;5.55;2.90;;;10.50;72.30;;;10.28;57.88;95404.00;5051383;28;20294;-79
2021/10/16 08:10:21;;;;;;;6.93;4.20;;;10.40;72.20;;;10.34;57.74;95398.06;5034687;28;20203;-79
2021/10/16 08:12:49;;;;;;;12.40;4.32;;;10.50;72.30;;;10.39;57.82;95393.94;5050774;28;20253;-79
2021/10/16 08:15:16;;;;;;;5.97;3.35;;;10.50;72.40;;;10.48;57.82;95406.97;5034761;28;20196;-79
2021/10/16 08:17:43;;;;;;;5.43;2.80;;;10.60;72.60;;;10.58;57.76;95404.91;5034017;28;20224;-78
2021/10/16 08:20:11;;;;;;;7.95;2.97;;;10.60;72.70;;;10.67;57.79;95395.16;5034512;28;20281;-80
2021/10/16 08:22:42;;;;;;;4.32;2.88;;;10.70;72.80;;;10.84;57.60;95401.03;5034510;28;20288;-80
2021/10/16 08:25:11;;;;;;;5.93;3.13;;;10.90;73.00;;;10.95;57.56;95397.13;5084646;28;20187;-78
2021/10/16 08:27:40;;;;;;;3.05;2.28;;;10.90;72.80;;;11.08;57.42;95397.31;5033878;28;20227;-79
2021/10/16 08:30:10;;;;;;;5.53;2.45;;;11.00;72.80;;;11.21;57.30;95402.72;5034687;28;20650;-79
2021/10/16 08:32:38;;;;;;;5.45;2.50;;;11.10;72.70;;;11.33;57.31;95399.66;5050673;28;20227;-79
2021/10/16 08:35:07;;;;;;;5.10;2.47;;;11.20;72.80;;;11.47;57.17;95409.28;5050910;28;20200;-78
2021/10/16 08:37:34;;;;;;;4.75;2.28;;;11.30;72.80;;;11.66;57.32;95402.63;5033568;28;20224;-79
2021/10/16 08:40:05;;;;;;;4.15;2.15;;;11.40;73.10;;;11.89;57.34;95409.53;5050515;28;20273;-79
2021/10/16 08:42:34;;;;;;;92.45;55.47;;;11.60;73.40;;;12.12;57.16;95405.91;5080123;28;20230;-79
2021/10/16 08:45:03;;;;;;;46.03;32.47;;;11.70;73.40;;;12.40;57.29;95413.00;5047112;28;20290;-80
2021/10/16 08:47:38;;;;;;;20.98;15.40;;;11.90;73.60;;;12.74;57.01;95414.91;5030410;28;20251;-80
2021/10/16 08:50:09;;;;;;;12.02;9.43;;;12.20;73.40;;;13.06;56.95;95412.66;5014883;28;20202;-79
2021/10/16 08:52:38;;;;;;;9.65;6.70;;;12.40;73.70;;;13.36;56.56;95408.94;5033854;28;20219;-79
2021/10/16 08:55:10;;;;;;;8.73;4.35;;;12.70;73.80;;;13.66;56.49;95419.19;5051002;28;20215;-79
2021/10/16 08:57:47;;;;;;;4.90;3.22;;;12.90;73.60;;;13.88;55.89;95411.97;5047081;28;20215;-78
2021/10/16 09:00:53;;;;;;;5.20;3.00;;;13.20;73.30;;;14.00;55.69;95413.00;5032334;28;20219;-77
2021/10/16 09:03:40;;;;;;;6.20;4.07;;;13.40;72.40;;;14.08;55.39;95419.88;5030780;28;20215;-79
2021/10/16 09:06:11;;;;;;;5.05;3.03;;;13.70;71.70;;;14.08;55.17;95419.88;5029403;28;20222;-79
2021/10/16 09:08:53;;;;;;;4.07;2.60;;;13.80;71.60;;;14.01;55.06;95416.44;5050319;28;20196;-78
2021/10/16 09:11:34;;;;;;;3.72;2.50;;;13.90;71.20;;;13.90;54.92;95416.00;5049985;28;20215;-79
2021/10/16 09:14:06;;;;;;;6.45;3.58;;;13.90;70.60;;;13.76;54.75;95420.44;5034719;28;20200;-78
2021/10/16 09:16:43;;;;;;;9.02;5.38;;;13.90;70.30;;;13.65;54.70;95426.28;5034054;28;20226;-78
2021/10/16 09:19:27;;;;;;;7.32;3.70;;;13.90;70.00;;;13.53;54.73;95426.03;5033638;28;20308;-78
2021/10/16 09:21:58;;;;;;;8.40;4.80;;;13.80;69.90;;;13.48;54.59;95420.56;5046365;28;20595;-78
2021/10/16 09:24:38;;;;;;;19.08;10.98;;;13.80;70.00;;;13.45;54.75;95421.75;5014182;28;20266;-77
2021/10/16 09:27:10;;;;;;;16.65;9.48;;;13.70;69.70;;;13.45;55.03;95421.75;5010896;28;20235;-78
2021/10/16 09:29:44;;;;;;;7.68;4.85;;;13.70;70.00;;;13.50;54.80;95415.06;5061459;28;20231;-78
2021/10/16 09:32:22;;;;;;;6.68;3.20;;;13.70;70.10;;;13.64;54.93;95416.75;5033261;28;20212;-79
2021/10/16 09:34:59;;;;;;;4.47;2.40;;;13.70;70.40;;;13.87;55.01;95412.97;5034229;28;20191;-80
2021/10/16 09:37:26;;;;;;;2.53;1.90;;;13.80;70.40;;;14.12;55.19;95413.19;5063766;28;20649;-77
2021/10/16 09:39:57;;;;;;;3.58;2.05;;;13.90;71.30;;;14.37;54.76;95416.03;5030606;28;20224;-78
2021/10/16 09:42:45;;;;;;;19.30;17.27;;;14.00;71.10;;;14.59;54.50;95410.56;5032232;28;20246;-78
2021/10/16 09:45:14;;;;;;;6.40;5.40;;;14.20;70.60;;;14.73;54.07;95414.03;5051976;28;20199;-79
2021/10/16 09:47:54;;;;;;;5.80;4.38;;;14.40;70.60;;;14.78;53.55;95411.59;5050120;28;20298;-78
2021/10/16 09:50:22;;;;;;;144.35;97.32;;;14.50;70.00;;;14.85;53.53;95420.28;5035895;28;20612;-78
2021/10/16 09:52:51;;;;;;;49.63;39.72;;;14.60;70.10;;;14.85;53.77;95427.41;5036620;28;20215;-77
2021/10/16 09:55:18;;;;;;;22.63;18.42;;;14.70;69.90;;;14.82;53.74;95420.72;5054057;28;20238;-79
2021/10/16 09:57:46;;;;;;;13.85;9.18;;;14.80;69.70;;;14.76;53.34;95418.91;5020816;28;20230;-79
2021/10/16 10:00:15;;;;;;;10.60;6.18;;;14.80;69.40;;;14.67;53.41;95420.13;5036334;28;20688;-79
2021/10/16 10:02:50;;;;;;;13.15;8.13;;;14.80;69.00;;;14.60;52.81;95424.56;5036679;28;20632;-78
2021/10/16 10:05:20;;;;;;;8.25;4.65;;;14.90;68.50;;;14.51;53.12;95419.50;5033841;28;20203;-77
2021/10/16 10:07:48;;;;;;;30.63;12.65;;;14.80;68.40;;;14.50;53.06;95424.97;5066833;28;20715;-77
2021/10/16 10:10:16;;;;;;;22.95;11.13;;;14.80;68.60;;;14.51;53.32;95421.31;5036924;28;20238;-77
2021/10/16 10:12:47;;;;;;;45.03;20.05;;;14.70;68.90;;;14.57;53.53;95426.63;5037184;28;20218;-78
2021/10/16 10:15:18;;;;;;;15.55;7.50;;;14.70;68.90;;;14.67;52.81;95420.13;5032609;28;20630;-78
2021/10/16 10:17:47;;;;;;;7.10;3.92;;;14.80;69.00;;;14.77;52.49;95417.06;5066568;28;20208;-79
2021/10/16 10:20:15;;;;;;;26.52;12.63;;;14.80;68.50;;;14.87;52.83;95410.34;5068889;28;20701;-79
2021/10/16 10:22:44;;;;;;;7.40;4.10;;;14.90;68.90;;;14.95;52.45;95395.28;5035788;28;20225;-79
2021/10/16 10:25:25;;;;;;;4.85;2.53;;;14.90;68.50;;;14.99;51.19;95401.78;5053150;28;20191;-80
2021/10/16 10:27:55;;;;;;;5.35;2.20;;;14.90;67.60;;;14.97;50.83;95395.91;5069793;28;20280;-78
2021/10/16 10:30:35;;;;;;;2.30;1.75;;;15.00;67.70;;;14.97;51.42;95402.00;5036657;28;20230;-79
2021/10/16 10:33:21;;;;;;;3.53;2.30;;;15.10;67.30;;;14.96;51.32;95394.28;5054376;28;20184;-79
2021/10/16 10:36:19;;;;;;;8.48;5.20;;;15.10;67.50;;;15.02;51.67;95394.25;5053084;28;20641;-79